Time;durP1;ratioP1;P1;durP2;ratioP2;P2;SDS_P1;SDS_P2;PMS_P1;PMS_P2;Temp;Humidity;BMP_temperature;BMP_pressure;BME280_temperature;BME280_humidity;BME280_pressure;Samples;Min_cycle;Max_cycle;Signal;HPM_P1;HPM_P2
2023/05/25 00:01:06;;;;;;;16.30;5.95;;;10.60;99.90;;;;;;5094041;28;20062;-57
2023/05/25 00:03:32;;;;;;;15.07;5.75;;;10.60;99.90;;;;;;5094383;28;20040;-57
2023/05/25 00:06:00;;;;;;;12.95;5.47;;;10.60;99.90;;;;;;5093608;28;20378;-56
2023/05/25 00:08:26;;;;;;;13.75;6.07;;;10.60;99.90;;;;;;5094003;28;20040;-56
2023/05/25 00:10:51;;;;;;;14.50;5.45;;;10.60;99.90;;;;;;5092281;28;20044;-56
2023/05/25 00:13:17;;;;;;;14.48;5.47;;;10.60;99.90;;;;;;5086459;28;20084;-56
2023/05/25 00:15:43;;;;;;;12.65;6.13;;;10.60;99.90;;;;;;5093562;28;20448;-56
2023/05/25 00:18:08;;;;;;;12.00;5.20;;;10.70;99.90;;;;;;5084743;28;20039;-56
2023/05/25 00:20:34;;;;;;;9.88;4.72;;;10.50;99.90;;;;;;5093525;28;20036;-56
2023/05/25 00:23:01;;;;;;;15.05;5.35;;;10.60;99.90;;;;;;5126568;27;20040;-57
2023/05/25 00:25:27;;;;;;;12.82;4.55;;;10.60;99.90;;;;;;5093667;28;20393;-56
2023/05/25 00:27:52;;;;;;;11.43;5.07;;;10.60;99.90;;;;;;5093353;28;20601;-56
2023/05/25 00:30:18;;;;;;;10.02;4.07;;;10.60;99.90;;;;;;5080763;28;20112;-56
2023/05/25 00:32:44;;;;;;;10.43;4.68;;;10.60;99.90;;;;;;5073156;28;20044;-56
2023/05/25 00:35:10;;;;;;;8.48;4.80;;;10.60;99.90;;;;;;5073264;28;20040;-56
2023/05/25 00:37:35;;;;;;;10.70;4.45;;;10.50;99.90;;;;;;5071439;28;20040;-56
2023/05/25 00:40:01;;;;;;;9.55;5.13;;;10.40;99.90;;;;;;5072636;28;20521;-56
2023/05/25 00:42:28;;;;;;;11.70;5.25;;;10.40;99.90;;;;;;5072716;28;20055;-56
2023/05/25 00:44:54;;;;;;;12.43;5.07;;;10.30;99.90;;;;;;5072563;28;20090;-56
2023/05/25 00:47:19;;;;;;;15.48;5.82;;;10.30;99.90;;;;;;5105217;28;20041;-56
2023/05/25 00:49:45;;;;;;;11.85;4.60;;;10.30;99.90;;;;;;5072655;28;20040;-57
2023/05/25 00:52:11;;;;;;;14.43;5.60;;;10.20;99.90;;;;;;5072793;28;20036;-57
2023/05/25 00:54:59;;;;;;;13.82;5.65;;;10.30;99.90;;;;;;5073157;28;20094;-58
2023/05/25 00:57:27;;;;;;;13.85;5.50;;;10.30;99.90;;;;;;5061743;28;20390;-58
2023/05/25 00:59:54;;;;;;;11.15;5.43;;;10.20;99.90;;;;;;5072430;28;20048;-56
2023/05/25 01:02:23;;;;;;;16.92;5.60;;;10.20;99.90;;;;;;5067653;28;20818;-56
2023/05/25 01:04:52;;;;;;;11.05;5.10;;;10.20;99.90;;;;;;5072538;28;20036;-56
2023/05/25 01:07:24;;;;;;;10.05;4.60;;;10.20;99.90;;;;;;5079394;28;20498;-56
2023/05/25 01:09:58;;;;;;;11.90;4.75;;;10.20;99.90;;;;;;5108386;28;20046;-56
2023/05/25 01:12:29;;;;;;;13.23;5.10;;;10.20;99.90;;;;;;5122701;27;20366;-56
2023/05/25 01:14:55;;;;;;;11.88;4.38;;;10.10;99.90;;;;;;5092798;28;20036;-57
2023/05/25 01:17:21;;;;;;;15.98;5.45;;;10.10;99.90;;;;;;5092852;28;20035;-56
2023/05/25 01:19:47;;;;;;;14.07;5.72;;;10.00;99.90;;;;;;5092720;28;20042;-55
2023/05/25 01:22:12;;;;;;;15.15;5.53;;;10.10;99.90;;;;;;5092319;28;20040;-55
2023/05/25 01:24:46;;;;;;;15.10;5.47;;;10.10;99.90;;;;;;5092424;28;20040;-56
2023/05/25 01:27:21;;;;;;;12.57;5.10;;;10.00;99.90;;;;;;5092696;28;20097;-56
2023/05/25 01:29:47;;;;;;;11.90;5.50;;;10.10;99.90;;;;;;5092438;28;20494;-57
2023/05/25 01:32:16;;;;;;;13.27;5.47;;;10.00;99.90;;;;;;5092405;28;20042;-56
2023/05/25 01:34:43;;;;;;;11.75;5.85;;;9.90;99.90;;;;;;5092449;28;20043;-56
2023/05/25 01:37:16;;;;;;;8.85;6.13;;;9.80;99.90;;;;;;5092041;28;20046;-56
2023/05/25 01:39:42;;;;;;;13.00;5.60;;;9.80;99.90;;;;;;5125207;27;20074;-56
2023/05/25 01:42:08;;;;;;;14.90;5.72;;;9.90;99.90;;;;;;5092231;28;20044;-57
2023/05/25 01:44:35;;;;;;;15.23;5.45;;;9.90;99.90;;;;;;5092106;28;20051;-56
2023/05/25 01:47:33;;;;;;;11.40;5.47;;;10.00;99.90;;;;;;5090865;28;20032;-57
2023/05/25 01:50:11;;;;;;;12.43;5.40;;;9.90;99.90;;;;;;5071290;28;20036;-57
2023/05/25 01:52:44;;;;;;;12.00;6.10;;;10.00;99.90;;;;;;5092298;28;20028;-56
2023/05/25 01:55:14;;;;;;;14.00;6.22;;;10.00;99.90;;;;;;5092543;28;20043;-57
2023/05/25 01:57:42;;;;;;;12.65;5.35;;;10.00;99.90;;;;;;5091846;28;20044;-57
2023/05/25 02:00:12;;;;;;;13.63;6.10;;;10.00;99.90;;;;;;5092501;28;20046;-56
2023/05/25 02:02:41;;;;;;;15.43;5.82;;;10.00;99.90;;;;;;5091810;28;20036;-57
2023/05/25 02:05:07;;;;;;;12.27;5.18;;;10.00;99.90;;;;;;5095136;28;20047;-57
2023/05/25 02:07:33;;;;;;;16.08;5.70;;;10.00;99.90;;;;;;5096323;28;20054;-57
2023/05/25 02:09:59;;;;;;;11.55;5.10;;;9.90;99.90;;;;;;5096329;28;20028;-57
2023/05/25 02:12:25;;;;;;;13.00;4.95;;;9.90;99.90;;;;;;5096062;28;20032;-58
2023/05/25 02:14:50;;;;;;;15.43;5.45;;;9.90;99.90;;;;;;5095885;28;20040;-57
2023/05/25 02:17:19;;;;;;;12.93;5.75;;;9.90;99.90;;;;;;5096128;28;20082;-56
2023/05/25 02:19:46;;;;;;;12.10;5.55;;;10.00;99.90;;;;;;5095918;28;20043;-57
2023/05/25 02:22:12;;;;;;;15.07;5.80;;;10.00;99.90;;;;;;5096094;28;20039;-56
2023/05/25 02:24:37;;;;;;;16.77;6.95;;;10.00;99.90;;;;;;5095910;28;20040;-56
2023/05/25 02:27:05;;;;;;;18.02;7.53;;;10.00;99.90;;;;;;5096017;28;20036;-56
2023/05/25 02:29:30;;;;;;;15.50;5.80;;;10.00;99.90;;;;;;5095811;28;20375;-57
2023/05/25 02:31:56;;;;;;;14.40;6.20;;;10.10;99.90;;;;;;5084717;28;20043;-57
2023/05/25 02:34:21;;;;;;;14.00;5.90;;;10.00;99.90;;;;;;5075189;28;20043;-56
2023/05/25 02:36:47;;;;;;;12.43;5.72;;;9.90;99.90;;;;;;5075494;28;20036;-57
2023/05/25 02:39:13;;;;;;;14.30;6.70;;;9.90;99.90;;;;;;5075145;28;20044;-57
2023/05/25 02:41:39;;;;;;;12.65;5.65;;;9.80;99.90;;;;;;5075418;28;20048;-56
2023/05/25 02:44:04;;;;;;;12.98;6.22;;;9.70;99.90;;;;;;5075118;28;20046;-56
2023/05/25 02:46:32;;;;;;;9.18;4.88;;;9.70;99.90;;;;;;5075096;28;20039;-55
2023/05/25 02:48:58;;;;;;;12.20;5.72;;;9.80;99.90;;;;;;5074695;28;20098;-56
2023/05/25 02:51:24;;;;;;;13.10;5.18;;;9.80;99.90;;;;;;5107697;28;20497;-56
2023/05/25 02:53:50;;;;;;;14.85;5.55;;;9.80;99.90;;;;;;5074925;28;20028;-56
2023/05/25 02:56:16;;;;;;;13.10;5.30;;;9.80;99.90;;;;;;5074885;28;20072;-55
2023/05/25 02:58:41;;;;;;;11.00;5.55;;;9.70;99.90;;;;;;5074892;28;20079;-56
2023/05/25 03:01:09;;;;;;;10.27;4.38;;;9.60;99.90;;;;;;5075086;28;20120;-56
2023/05/25 03:03:36;;;;;;;12.95;5.60;;;9.60;99.90;;;;;;5074455;28;20493;-56
2023/05/25 03:06:03;;;;;;;12.68;6.90;;;9.60;99.90;;;;;;5074472;28;20478;-55
2023/05/25 03:08:29;;;;;;;9.77;5.35;;;9.70;99.90;;;;;;5074691;28;20041;-56
2023/05/25 03:10:55;;;;;;;13.32;5.53;;;9.60;99.90;;;;;;5074697;28;20047;-56
2023/05/25 03:13:21;;;;;;;16.98;7.05;;;9.50;99.90;;;;;;5074615;28;20032;-56
2023/05/25 03:15:46;;;;;;;10.98;6.57;;;9.60;99.90;;;;;;5074515;28;20478;-56
2023/05/25 03:18:12;;;;;;;14.88;5.65;;;9.50;99.90;;;;;;5074850;28;20097;-56
2023/05/25 03:20:37;;;;;;;15.50;6.38;;;9.50;99.90;;;;;;5074563;28;20036;-56
2023/05/25 03:23:03;;;;;;;11.65;5.90;;;9.50;99.90;;;;;;5074420;28;20112;-56
2023/05/25 03:25:29;;;;;;;14.75;6.38;;;9.50;99.90;;;;;;5074895;28;20884;-57
2023/05/25 03:27:55;;;;;;;13.73;5.32;;;9.50;99.90;;;;;;5074292;28;20509;-56
2023/05/25 03:30:23;;;;;;;12.75;6.32;;;9.50;99.90;;;;;;5074500;28;20064;-56
2023/05/25 03:32:49;;;;;;;13.27;6.13;;;9.40;99.90;;;;;;5074208;28;20448;-56
2023/05/25 03:35:15;;;;;;;13.10;5.70;;;9.50;99.90;;;;;;5074466;28;20079;-56
2023/05/25 03:37:40;;;;;;;16.58;7.03;;;9.50;99.90;;;;;;5074492;28;20158;-56
2023/05/25 03:40:08;;;;;;;15.05;6.30;;;9.40;99.90;;;;;;5073733;28;20178;-56
2023/05/25 03:42:34;;;;;;;10.57;5.30;;;9.40;99.90;;;;;;5073976;28;20064;-55
2023/05/25 03:45:00;;;;;;;13.75;5.93;;;9.30;99.90;;;;;;5074045;28;20037;-56
2023/05/25 03:47:25;;;;;;;14.52;5.68;;;9.40;99.90;;;;;;5074214;28;20040;-56
2023/05/25 03:49:51;;;;;;;14.43;5.68;;;9.30;99.90;;;;;;5073944;28;20039;-56
2023/05/25 03:52:16;;;;;;;9.32;5.22;;;9.30;99.90;;;;;;5074001;28;20036;-56
2023/05/25 03:54:42;;;;;;;13.27;5.40;;;9.30;99.90;;;;;;5073872;28;20040;-56
2023/05/25 03:57:08;;;;;;;12.52;5.55;;;9.30;99.90;;;;;;5073713;28;20038;-56
2023/05/25 03:59:33;;;;;;;14.55;6.38;;;9.40;99.90;;;;;;5073927;28;20047;-55
2023/05/25 04:01:59;;;;;;;13.95;5.93;;;9.50;99.90;;;;;;5073551;28;20037;-56
2023/05/25 04:04:26;;;;;;;13.80;6.35;;;9.50;99.90;;;;;;5072413;28;20045;-56
2023/05/25 04:06:52;;;;;;;17.10;6.20;;;9.60;99.90;;;;;;5072483;28;20139;-56
2023/05/25 04:09:18;;;;;;;19.55;7.32;;;9.60;99.90;;;;;;5073387;28;20557;-56
2023/05/25 04:11:45;;;;;;;15.30;8.07;;;9.70;99.90;;;;;;5073593;28;20112;-56
2023/05/25 04:14:10;;;;;;;14.35;7.07;;;9.70;99.90;;;;;;5073723;28;20028;-56
2023/05/25 04:16:36;;;;;;;20.45;8.00;;;9.80;99.90;;;;;;5073628;28;20421;-56
2023/05/25 04:19:02;;;;;;;15.00;7.85;;;9.80;99.90;;;;;;5078366;28;20041;-57
2023/05/25 04:21:28;;;;;;;13.70;7.43;;;9.90;99.90;;;;;;5093906;28;20036;-56
2023/05/25 04:23:53;;;;;;;17.85;8.73;;;10.00;99.90;;;;;;5093149;28;20024;-56
2023/05/25 04:26:19;;;;;;;19.08;8.90;;;10.00;99.90;;;;;;5093125;28;20036;-55
2023/05/25 04:28:45;;;;;;;21.25;8.68;;;10.20;99.90;;;;;;5093476;28;20036;-56
2023/05/25 04:31:12;;;;;;;18.80;8.45;;;10.20;99.90;;;;;;5093661;28;20047;-55
2023/05/25 04:33:38;;;;;;;17.83;8.07;;;10.30;99.90;;;;;;5093216;28;20398;-56
2023/05/25 04:36:04;;;;;;;24.77;8.73;;;10.30;99.90;;;;;;5093450;28;20127;-56
2023/05/25 04:38:32;;;;;;;15.82;8.45;;;10.40;99.90;;;;;;5093057;28;20040;-56
2023/05/25 04:40:58;;;;;;;20.65;8.32;;;10.60;99.90;;;;;;5081815;28;20054;-56
2023/05/25 04:43:24;;;;;;;19.88;9.85;;;10.60;99.90;;;;;;5071350;28;20097;-56
2023/05/25 04:45:53;;;;;;;14.80;8.48;;;10.50;99.90;;;;;;5073102;28;20048;-56
2023/05/25 04:48:19;;;;;;;21.77;8.75;;;10.70;99.90;;;;;;5072672;28;20033;-56
2023/05/25 04:50:45;;;;;;;22.40;10.05;;;10.80;99.90;;;;;;5072843;28;20072;-56
2023/05/25 04:53:11;;;;;;;16.50;9.02;;;10.80;99.90;;;;;;5072320;28;20064;-56
2023/05/25 04:55:37;;;;;;;18.95;8.50;;;10.90;99.90;;;;;;5072850;28;20429;-56
2023/05/25 04:58:04;;;;;;;20.15;9.02;;;10.90;99.90;;;;;;5072639;28;20036;-56
2023/05/25 05:00:30;;;;;;;17.88;9.10;;;11.00;99.90;;;;;;5072690;28;20041;-56
2023/05/25 05:02:57;;;;;;;18.52;8.60;;;11.20;99.90;;;;;;5072912;28;20040;-56
2023/05/25 05:05:23;;;;;;;18.23;9.18;;;11.30;99.90;;;;;;5072452;28;20115;-56
2023/05/25 05:07:49;;;;;;;18.63;9.35;;;11.30;99.90;;;;;;5070780;28;20128;-57
2023/05/25 05:10:14;;;;;;;17.20;9.80;;;11.40;99.90;;;;;;5072557;28;20040;-56
2023/05/25 05:12:40;;;;;;;19.00;9.50;;;11.40;99.90;;;;;;5072630;28;20043;-56
2023/05/25 05:15:06;;;;;;;15.75;9.20;;;11.50;99.90;;;;;;5072308;28;20040;-56
2023/05/25 05:17:32;;;;;;;17.88;8.40;;;11.70;99.90;;;;;;5072473;28;20036;-57
2023/05/25 05:19:58;;;;;;;25.25;8.90;;;11.60;99.90;;;;;;5072515;28;20048;-57
2023/05/25 05:22:24;;;;;;;17.45;8.70;;;11.70;99.90;;;;;;5072369;28;20040;-57
2023/05/25 05:24:50;;;;;;;20.10;9.55;;;11.80;99.90;;;;;;5104821;28;20044;-58
2023/05/25 05:27:16;;;;;;;18.08;9.30;;;11.80;99.90;;;;;;5072042;28;20382;-57
2023/05/25 05:29:41;;;;;;;23.52;8.70;;;11.90;99.90;;;;;;5072044;28;20035;-56
2023/05/25 05:32:07;;;;;;;14.80;9.32;;;11.90;99.90;;;;;;5072309;28;20032;-56
2023/05/25 05:34:33;;;;;;;21.85;9.38;;;12.10;99.90;;;;;;5072102;28;20047;-57
2023/05/25 05:36:59;;;;;;;20.27;9.60;;;11.90;99.90;;;;;;5072305;28;20111;-56
2023/05/25 05:39:25;;;;;;;20.15;9.07;;;12.00;99.90;;;;;;5070952;28;20467;-56
2023/05/25 05:41:51;;;;;;;19.85;8.48;;;12.10;99.90;;;;;;5071941;28;20040;-56
2023/05/25 05:44:17;;;;;;;17.90;9.93;;;12.30;99.90;;;;;;5071843;28;20083;-56
2023/05/25 05:46:42;;;;;;;18.70;8.70;;;12.40;99.90;;;;;;5071804;28;20032;-57
2023/05/25 05:49:08;;;;;;;20.98;8.18;;;12.30;99.90;;;;;;5070477;28;20508;-57
2023/05/25 05:51:34;;;;;;;21.92;8.70;;;12.40;99.90;;;;;;5072075;28;20036;-57
2023/05/25 05:53:59;;;;;;;20.95;7.90;;;12.60;99.90;;;;;;5072049;28;20043;-57
2023/05/25 05:56:25;;;;;;;20.60;7.65;;;12.60;99.90;;;;;;5072039;28;20029;-57
2023/05/25 05:58:52;;;;;;;15.20;7.25;;;12.80;99.90;;;;;;5071760;28;20544;-57
2023/05/25 06:01:18;;;;;;;14.60;7.57;;;12.80;99.90;;;;;;5071770;28;20116;-57
2023/05/25 06:03:44;;;;;;;15.40;7.95;;;12.80;99.90;;;;;;5071584;28;20112;-58
2023/05/25 06:06:10;;;;;;;13.95;6.18;;;12.90;99.90;;;;;;5071675;28;20072;-57
2023/05/25 06:08:36;;;;;;;18.02;5.75;;;13.00;99.90;;;;;;5071928;28;20040;-57
2023/05/25 06:11:01;;;;;;;14.40;5.40;;;13.00;99.90;;;;;;5072171;28;20029;-57
2023/05/25 06:13:27;;;;;;;10.18;4.07;;;13.00;99.90;;;;;;5071521;28;20070;-57
2023/05/25 06:15:53;;;;;;;12.88;3.60;;;13.00;99.90;;;;;;5071642;28;20044;-57
2023/05/25 06:18:18;;;;;;;17.23;3.83;;;13.10;99.90;;;;;;5071709;28;20064;-57
2023/05/25 06:20:44;;;;;;;11.00;3.28;;;13.10;99.90;;;;;;5071435;28;20123;-55
2023/05/25 06:23:12;;;;;;;13.52;4.10;;;13.20;99.90;;;;;;5076187;28;20044;-57
2023/05/25 06:25:38;;;;;;;11.63;4.10;;;13.20;99.90;;;;;;5090536;28;20494;-57
2023/05/25 06:28:04;;;;;;;11.60;3.30;;;13.20;99.90;;;;;;5091533;28;20043;-57
2023/05/25 06:30:30;;;;;;;9.52;3.17;;;13.30;99.90;;;;;;5091829;28;20060;-57
2023/05/25 06:32:56;;;;;;;16.63;3.53;;;13.30;99.90;;;;;;5091562;28;20047;-56
2023/05/25 06:35:22;;;;;;;18.42;4.00;;;13.30;99.90;;;;;;5124446;28;20170;-56
2023/05/25 06:37:48;;;;;;;18.52;3.58;;;13.40;99.90;;;;;;5091654;28;20118;-56
2023/05/25 06:40:15;;;;;;;14.40;3.97;;;13.40;99.90;;;;;;5086397;28;20049;-57
2023/05/25 06:42:41;;;;;;;12.25;3.60;;;13.50;99.90;;;;;;5071970;28;20051;-57
2023/05/25 06:45:08;;;;;;;15.50;3.83;;;13.50;99.90;;;;;;5071417;28;20041;-56
2023/05/25 06:47:34;;;;;;;14.70;3.88;;;13.60;99.90;;;;;;5071396;28;20090;-57
2023/05/25 06:50:00;;;;;;;19.40;4.43;;;13.60;99.90;;;;;;5072197;28;20028;-57
2023/05/25 06:52:28;;;;;;;20.05;3.63;;;13.70;99.90;;;;;;5075583;28;20033;-57
2023/05/25 06:54:55;;;;;;;14.98;4.20;;;13.90;99.90;;;;;;5075176;28;20090;-57
2023/05/25 06:57:23;;;;;;;22.05;4.75;;;13.90;99.90;;;;;;5075123;28;20492;-57
2023/05/25 06:59:49;;;;;;;22.10;4.60;;;13.90;99.90;;;;;;5075137;28;20123;-57
2023/05/25 07:02:16;;;;;;;19.50;5.15;;;13.90;99.90;;;;;;5075134;28;20111;-57
2023/05/25 07:04:41;;;;;;;16.75;4.53;;;13.90;99.90;;;;;;5074837;28;20044;-57
2023/05/25 07:07:08;;;;;;;24.90;5.75;;;14.00;99.90;;;;;;5074908;28;20029;-57
2023/05/25 07:09:34;;;;;;;23.45;5.18;;;14.00;99.90;;;;;;5074962;28;20028;-57
2023/05/25 07:12:00;;;;;;;18.17;4.50;;;14.00;99.90;;;;;;5074638;28;20039;-58
2023/05/25 07:14:25;;;;;;;21.10;4.63;;;14.00;99.90;;;;;;5074682;28;20036;-57
2023/05/25 07:16:51;;;;;;;22.85;4.43;;;14.00;99.90;;;;;;5074793;28;20577;-57
2023/05/25 07:19:17;;;;;;;21.60;5.18;;;14.00;99.90;;;;;;5074894;28;20028;-57
2023/05/25 07:21:42;;;;;;;28.48;5.35;;;14.00;99.90;;;;;;5074684;28;20040;-57
2023/05/25 07:24:08;;;;;;;17.85;4.28;;;14.10;99.90;;;;;;5072911;28;20052;-58
2023/05/25 07:26:35;;;;;;;27.35;4.55;;;14.40;99.90;;;;;;5074767;28;20128;-57
2023/05/25 07:29:01;;;;;;;24.58;5.65;;;14.70;99.90;;;;;;5074187;28;20494;-57
2023/05/25 07:31:27;;;;;;;22.30;4.93;;;14.80;99.90;;;;;;5074515;28;20471;-57
2023/05/25 07:33:54;;;;;;;22.67;5.53;;;14.80;99.90;;;;;;5074349;28;20048;-57
2023/05/25 07:36:20;;;;;;;16.67;4.00;;;14.70;99.90;;;;;;5074228;28;20041;-57
2023/05/25 07:38:46;;;;;;;24.60;5.32;;;14.70;99.90;;;;;;5074347;28;20387;-57
2023/05/25 07:41:12;;;;;;;19.20;4.40;;;14.80;99.90;;;;;;5078025;28;20063;-57
2023/05/25 07:43:38;;;;;;;21.08;4.63;;;14.70;99.90;;;;;;5083098;28;20040;-56
2023/05/25 07:46:04;;;;;;;20.77;5.10;;;14.90;99.90;;;;;;5094468;28;20044;-57
2023/05/25 07:48:30;;;;;;;28.13;5.50;;;15.20;99.90;;;;;;5082300;28;20047;-57
2023/05/25 07:50:56;;;;;;;30.70;6.25;;;15.40;99.90;;;;;;5094532;28;20039;-57
2023/05/25 07:53:21;;;;;;;27.52;4.45;;;15.50;99.90;;;;;;5094288;28;20032;-57
2023/05/25 07:55:47;;;;;;;25.25;5.22;;;15.70;99.90;;;;;;5094155;28;20039;-57
2023/05/25 07:58:13;;;;;;;19.20;5.07;;;16.00;99.90;;;;;;5094090;28;20042;-57
2023/05/25 08:00:38;;;;;;;27.17;5.15;;;15.90;99.90;;;;;;5091752;28;20047;-57
2023/05/25 08:03:04;;;;;;;22.33;5.10;;;16.10;99.90;;;;;;5073062;28;20047;-58
2023/05/25 08:05:30;;;;;;;20.73;4.68;;;16.10;99.90;;;;;;5073830;28;20062;-57
2023/05/25 08:07:56;;;;;;;19.38;5.75;;;15.90;99.90;;;;;;5074068;28;20068;-57
2023/05/25 08:10:22;;;;;;;22.23;4.90;;;16.10;99.90;;;;;;5073709;28;20427;-57
2023/05/25 08:12:48;;;;;;;22.08;5.05;;;16.50;99.90;;;;;;5071039;28;20068;-56
2023/05/25 08:15:14;;;;;;;24.13;5.57;;;16.80;99.90;;;;;;5055945;28;20052;-57
2023/05/25 08:17:40;;;;;;;26.77;5.15;;;17.00;99.90;;;;;;5077969;28;20037;-56
2023/05/25 08:20:09;;;;;;;21.60;4.82;;;17.30;99.90;;;;;;5073343;28;20040;-56
2023/05/25 08:22:35;;;;;;;22.98;6.55;;;17.70;99.90;;;;;;5073082;28;20131;-56
2023/05/25 08:25:02;;;;;;;22.25;5.00;;;17.90;99.90;;;;;;5073078;28;20120;-56
2023/05/25 08:27:28;;;;;;;19.10;4.50;;;18.00;99.90;;;;;;5073297;28;20028;-57
2023/05/25 08:29:54;;;;;;;36.78;5.85;;;18.20;99.90;;;;;;5073059;28;20578;-58
2023/05/25 08:32:19;;;;;;;24.27;4.80;;;18.30;99.90;;;;;;5073502;28;20123;-57
2023/05/25 08:34:45;;;;;;;20.20;4.85;;;18.40;99.90;;;;;;5105476;28;20036;-57
2023/05/25 08:37:11;;;;;;;24.50;5.88;;;18.40;99.90;;;;;;5071691;28;20093;-57
2023/05/25 08:39:36;;;;;;;20.13;4.15;;;18.40;99.90;;;;;;5072750;28;20119;-55
2023/05/25 08:42:02;;;;;;;18.65;5.55;;;18.60;99.90;;;;;;5072856;28;20045;-58
2023/05/25 08:44:28;;;;;;;18.73;4.68;;;18.70;99.90;;;;;;5078953;28;20173;-58
2023/05/25 08:46:55;;;;;;;20.00;4.75;;;18.70;99.90;;;;;;5092078;28;20072;-58
2023/05/25 08:49:22;;;;;;;18.60;4.53;;;18.80;99.90;;;;;;5093041;28;20067;-57
2023/05/25 08:51:52;;;;;;;21.52;4.72;;;18.90;99.90;;;;;;5093049;28;20036;-58
2023/05/25 08:54:21;;;;;;;22.48;4.90;;;19.30;99.90;;;;;;5093163;28;20028;-57
2023/05/25 08:56:53;;;;;;;24.85;5.95;;;19.60;99.90;;;;;;5092946;28;20035;-57
2023/05/25 08:59:56;;;;;;;19.40;5.45;;;19.80;99.90;;;;;;5093091;28;20027;-56
2023/05/25 09:02:40;;;;;;;20.98;5.18;;;19.50;99.90;;;;;;5089615;28;20056;-59
2023/05/25 09:05:07;;;;;;;19.38;4.63;;;19.60;99.90;;;;;;5092893;28;20047;-58
2023/05/25 09:07:34;;;;;;;14.55;4.15;;;19.70;99.90;;;;;;5082583;28;20044;-57
2023/05/25 09:10:01;;;;;;;18.80;5.07;;;19.60;99.90;;;;;;5071446;28;20040;-57
2023/05/25 09:12:29;;;;;;;19.23;4.70;;;19.60;99.90;;;;;;5072390;28;20107;-58
2023/05/25 09:14:58;;;;;;;14.95;4.25;;;19.80;99.90;;;;;;5071930;28;20386;-57
2023/05/25 09:17:24;;;;;;;17.95;5.35;;;19.40;99.90;;;;;;5071971;28;20033;-57
2023/05/25 09:19:50;;;;;;;21.35;4.65;;;19.20;99.90;;;;;;5104658;28;20040;-56
2023/05/25 09:22:16;;;;;;;17.35;4.70;;;19.40;99.90;;;;;;5070384;28;20449;-58
2023/05/25 09:24:43;;;;;;;16.52;4.35;;;19.50;99.90;;;;;;5072081;28;20399;-57
2023/05/25 09:27:16;;;;;;;16.52;4.47;;;19.70;99.90;;;;;;5072108;28;20045;-57
2023/05/25 09:29:42;;;;;;;20.77;4.40;;;19.60;99.90;;;;;;5068610;28;20028;-57
2023/05/25 09:32:07;;;;;;;19.40;5.15;;;19.20;99.90;;;;;;5079585;28;20355;-58
2023/05/25 09:34:33;;;;;;;16.67;4.47;;;19.40;99.90;;;;;;5070560;28;20044;-57
2023/05/25 09:37:02;;;;;;;20.15;4.78;;;19.60;99.90;;;;;;5072326;28;20041;-57
2023/05/25 09:39:29;;;;;;;13.68;4.53;;;19.70;99.90;;;;;;5071936;28;20032;-58
2023/05/25 09:41:56;;;;;;;17.05;4.85;;;19.70;99.90;;;;;;5071732;28;20059;-57
2023/05/25 09:44:22;;;;;;;16.77;3.85;;;19.80;99.90;;;;;;5072023;28;20045;-58
2023/05/25 09:46:47;;;;;;;12.40;3.67;;;19.60;99.90;;;;;;5063118;28;20041;-59
2023/05/25 09:49:14;;;;;;;18.80;6.00;;;20.00;99.90;;;;;;5086435;28;20040;-59
2023/05/25 09:51:39;;;;;;;17.45;4.38;;;20.30;99.90;;;;;;5081724;28;20040;-59
2023/05/25 09:54:09;;;;;;;22.73;5.63;;;20.40;99.90;;;;;;5068891;28;20045;-58
2023/05/25 09:56:35;;;;;;;26.77;5.70;;;19.90;99.90;;;;;;5070915;28;20071;-59
2023/05/25 09:59:02;;;;;;;22.42;5.90;;;19.60;99.90;;;;;;5071287;28;20033;-58
2023/05/25 10:01:27;;;;;;;15.20;4.43;;;19.70;99.90;;;;;;5071159;28;20033;-59
2023/05/25 10:03:58;;;;;;;20.92;5.47;;;19.50;99.90;;;;;;5071416;28;20032;-58
2023/05/25 10:06:25;;;;;;;21.20;4.47;;;19.60;99.90;;;;;;5073173;28;20033;-58
2023/05/25 10:08:52;;;;;;;26.92;5.28;;;20.10;99.90;;;;;;5071731;28;20040;-58
2023/05/25 10:11:20;;;;;;;25.13;5.95;;;20.00;99.90;;;;;;5106201;28;20437;-58
2023/05/25 10:13:46;;;;;;;24.63;5.88;;;19.80;99.90;;;;;;5069551;28;20499;-59
2023/05/25 10:16:16;;;;;;;34.53;5.53;;;19.50;99.90;;;;;;5071156;28;20036;-59
2023/05/25 10:18:56;;;;;;;23.77;5.57;;;19.50;99.90;;;;;;5071206;28;20071;-58
2023/05/25 10:21:26;;;;;;;20.77;5.65;;;19.20;99.90;;;;;;5071166;28;20046;-58
2023/05/25 10:23:55;;;;;;;20.02;5.45;;;19.00;99.90;;;;;;5071143;28;20112;-59
2023/05/25 10:26:25;;;;;;;17.40;4.72;;;18.80;99.90;;;;;;5074239;28;20039;-59
2023/05/25 10:28:54;;;;;;;25.65;6.55;;;18.70;99.90;;;;;;5075107;28;20068;-59
2023/05/25 10:31:20;;;;;;;22.10;5.22;;;18.20;99.90;;;;;;5075230;28;20036;-58
2023/05/25 10:33:47;;;;;;;20.63;4.72;;;18.10;99.90;;;;;;5074836;28;20377;-59
2023/05/25 10:36:13;;;;;;;20.75;5.95;;;18.50;99.90;;;;;;5074873;28;20047;-59
2023/05/25 10:38:40;;;;;;;18.52;5.18;;;18.70;99.90;;;;;;5077407;28;20111;-57
2023/05/25 10:41:08;;;;;;;28.25;5.60;;;18.80;99.90;;;;;;5070160;28;20462;-58
2023/05/25 10:43:34;;;;;;;29.95;6.35;;;18.50;99.90;;;;;;5077506;28;20531;-58
2023/05/25 10:46:01;;;;;;;21.45;5.85;;;18.70;99.90;;;;;;5095829;28;20040;-58
2023/05/25 10:48:48;;;;;;;29.65;6.07;;;19.00;99.90;;;;;;5095844;28;20107;-58
2023/05/25 10:51:17;;;;;;;21.02;5.93;;;18.60;99.90;;;;;;5088727;28;20083;-59
2023/05/25 10:53:44;;;;;;;;;;;18.50;99.90;;;;;;5073133;28;20127;-58
2023/05/25 10:56:13;;;;;;;22.02;4.65;;;18.70;99.90;;;;;;5075323;28;19924;-59
2023/05/25 10:58:43;;;;;;;18.23;4.63;;;18.90;99.90;;;;;;5074948;28;20123;-58
2023/05/25 11:01:13;;;;;;;21.13;5.70;;;18.80;99.90;;;;;;5086608;28;20089;-59
2023/05/25 11:04:10;;;;;;;26.50;5.82;;;19.20;99.90;;;;;;5084111;28;20104;-58
2023/05/25 11:06:36;;;;;;;18.20;4.53;;;19.10;99.90;;;;;;5069799;28;20460;-59
2023/05/25 11:09:02;;;;;;;15.10;4.78;;;19.30;99.90;;;;;;5079582;28;20041;-59
2023/05/25 11:11:46;;;;;;;23.10;5.32;;;19.30;99.90;;;;;;5085564;28;20063;-57
2023/05/25 11:14:31;;;;;;;23.98;5.70;;;19.20;99.90;;;;;;5087584;28;20032;-58
2023/05/25 11:17:06;;;;;;;19.92;5.07;;;19.40;99.90;;;;;;5095336;28;20047;-57
2023/05/25 11:19:50;;;;;;;21.45;5.95;;;19.50;99.90;;;;;;5087131;28;20035;-57
2023/05/25 11:22:21;;;;;;;25.27;5.32;;;19.30;99.90;;;;;;5094950;28;20032;-57
2023/05/25 11:24:51;;;;;;;24.52;5.40;;;19.20;99.90;;;;;;5094929;28;20036;-57
2023/05/25 11:27:25;;;;;;;15.93;4.72;;;19.40;99.90;;;;;;5094863;28;20039;-57
2023/05/25 11:29:51;;;;;;;19.08;4.80;;;19.60;99.90;;;;;;5091234;28;20583;-57
2023/05/25 11:32:17;;;;;;;18.13;4.68;;;19.50;99.90;;;;;;5094966;28;20115;-57
2023/05/25 11:34:45;;;;;;;21.30;5.63;;;19.30;99.90;;;;;;5093812;28;20173;-57
2023/05/25 11:37:14;;;;;;;24.55;5.15;;;19.40;99.90;;;;;;5086315;28;20118;-58
2023/05/25 11:39:41;;;;;;;20.98;5.15;;;19.20;99.90;;;;;;5088011;28;20048;-59
2023/05/25 11:42:10;;;;;;;19.95;5.13;;;19.30;99.90;;;;;;5069110;28;20068;-58
2023/05/25 11:44:36;;;;;;;25.67;5.47;;;19.30;99.90;;;;;;5074100;28;20087;-56
2023/05/25 11:47:07;;;;;;;25.30;4.82;;;19.40;99.90;;;;;;5106465;28;20052;-58
2023/05/25 11:49:34;;;;;;;21.27;4.28;;;19.10;99.90;;;;;;5068263;28;20036;-58
2023/05/25 11:52:07;;;;;;;20.50;4.55;;;19.30;99.90;;;;;;5073820;28;20044;-58
2023/05/25 11:54:33;;;;;;;21.48;5.35;;;18.90;99.90;;;;;;5074088;28;20036;-58
2023/05/25 11:57:00;;;;;;;20.38;5.22;;;19.20;99.90;;;;;;5073723;28;20052;-58
2023/05/25 11:59:26;;;;;;;18.35;4.63;;;19.10;99.90;;;;;;5073979;28;20108;-59
2023/05/25 12:01:56;;;;;;;18.83;4.63;;;19.00;99.90;;;;;;5073861;28;20047;-58
2023/05/25 12:04:22;;;;;;;26.23;6.50;;;19.70;99.90;;;;;;5073865;28;20041;-58
2023/05/25 12:06:48;;;;;;;18.58;4.78;;;19.60;99.90;;;;;;5073542;28;20062;-57
2023/05/25 12:09:20;;;;;;;16.85;5.30;;;19.40;99.90;;;;;;5073391;28;20047;-57
2023/05/25 12:11:47;;;;;;;16.90;4.78;;;19.70;99.90;;;;;;5073322;28;20028;-58
2023/05/25 12:14:13;;;;;;;23.83;5.60;;;19.70;99.90;;;;;;5073175;28;20024;-58
2023/05/25 12:16:39;;;;;;;17.52;5.65;;;19.60;99.90;;;;;;5105391;28;20052;-57
2023/05/25 12:19:07;;;;;;;22.02;5.88;;;19.40;99.90;;;;;;5083679;28;20032;-56
2023/05/25 12:21:33;;;;;;;21.30;5.45;;;19.10;99.90;;;;;;5093523;28;20040;-58
2023/05/25 12:24:00;;;;;;;17.25;4.80;;;18.80;99.90;;;;;;5093580;28;20073;-58
2023/05/25 12:26:27;;;;;;;20.83;5.75;;;18.80;99.90;;;;;;5093401;28;20032;-57
2023/05/25 12:29:06;;;;;;;20.05;5.38;;;19.20;99.90;;;;;;5093198;28;20044;-56
2023/05/25 12:31:34;;;;;;;23.13;4.40;;;19.10;99.90;;;;;;5093312;28;20089;-58
2023/05/25 12:34:08;;;;;;;21.92;5.45;;;19.70;99.90;;;;;;5093280;28;20098;-58
2023/05/25 12:36:42;;;;;;;19.33;4.90;;;19.60;99.90;;;;;;5093596;28;20040;-58
2023/05/25 12:39:08;;;;;;;22.85;5.63;;;19.60;99.90;;;;;;5093274;28;20040;-58